createdAt,value
2022-09-14T00:02:17.187Z,3.97
2022-09-14T00:04:43.817Z,3.30
2022-09-14T00:07:10.368Z,3.57
2022-09-14T00:09:36.987Z,3.43
2022-09-14T00:12:03.641Z,3.57
2022-09-14T00:14:30.271Z,3.53
2022-09-14T00:16:56.880Z,3.37
2022-09-14T00:19:25.616Z,3.30
2022-09-14T00:21:53.438Z,3.50
2022-09-14T00:24:20.016Z,3.93
2022-09-14T00:26:46.554Z,3.70
2022-09-14T00:29:13.130Z,5.97
2022-09-14T00:31:39.741Z,3.40
2022-09-14T00:34:06.984Z,3.30
2022-09-14T00:36:37.267Z,3.80
2022-09-14T00:39:03.896Z,3.90
2022-09-14T00:41:32.874Z,3.50
2022-09-14T00:44:11.536Z,3.43
2022-09-14T00:46:40.868Z,3.57
2022-09-14T00:49:11.951Z,3.70
2022-09-14T00:51:41.418Z,7.07
2022-09-14T00:54:08.000Z,3.57
2022-09-14T00:56:34.516Z,3.40
2022-09-14T00:59:03.984Z,4.00
2022-09-14T01:01:30.471Z,4.50
2022-09-14T01:03:56.952Z,3.40
2022-09-14T01:06:38.829Z,3.47
2022-09-14T01:09:44.391Z,3.40
2022-09-14T01:12:21.204Z,3.50
2022-09-14T01:15:31.989Z,3.70
2022-09-14T01:18:08.311Z,3.83
2022-09-14T01:20:38.786Z,3.90
2022-09-14T01:23:17.102Z,3.57
2022-09-14T01:26:14.031Z,3.80
2022-09-14T01:28:49.673Z,3.57
2022-09-14T01:31:37.683Z,3.47
2022-09-14T01:34:24.597Z,4.00
2022-09-14T01:36:53.411Z,7.90
2022-09-14T01:39:20.115Z,4.67
2022-09-14T01:41:47.056Z,4.33
2022-09-14T01:44:18.318Z,3.87
2022-09-14T01:46:54.957Z,3.97
2022-09-14T01:49:52.057Z,4.00
2022-09-14T01:52:27.321Z,3.70
2022-09-14T01:55:18.703Z,3.87
2022-09-14T01:57:48.765Z,4.30
2022-09-14T02:00:16.884Z,4.00
2022-09-14T02:02:46.813Z,3.63
2022-09-14T02:05:30.803Z,4.33
2022-09-14T02:07:57.833Z,3.70
2022-09-14T02:10:24.471Z,3.60
2022-09-14T02:12:52.123Z,4.10
2022-09-14T02:15:18.787Z,4.03
2022-09-14T02:17:45.264Z,3.83
2022-09-14T02:20:16.232Z,3.90
2022-09-14T02:22:42.728Z,3.80
2022-09-14T02:25:09.355Z,3.93
2022-09-14T02:27:35.821Z,3.73
2022-09-14T02:30:02.491Z,4.50
2022-09-14T02:32:52.063Z,3.83
2022-09-14T02:35:47.542Z,3.97
2022-09-14T02:38:32.812Z,4.30
2022-09-14T02:41:13.952Z,3.90
2022-09-14T02:44:05.833Z,3.80
2022-09-14T02:47:06.693Z,4.13
2022-09-14T02:49:33.084Z,3.80
2022-09-14T02:52:26.109Z,4.30
2022-09-14T02:54:57.792Z,4.23
2022-09-14T02:57:24.633Z,4.10
2022-09-14T02:59:53.500Z,4.07
2022-09-14T03:02:20.096Z,5.00
2022-09-14T03:04:47.088Z,4.10
2022-09-14T03:07:13.599Z,3.80
2022-09-14T03:09:40.105Z,5.30
2022-09-14T03:12:06.628Z,3.90
2022-09-14T03:14:33.157Z,5.87
2022-09-14T03:16:59.645Z,4.60
2022-09-14T03:19:26.214Z,6.13
2022-09-14T03:21:52.719Z,4.00
2022-09-14T03:24:19.193Z,4.57
2022-09-14T03:26:46.302Z,4.47
2022-09-14T03:29:12.783Z,4.47
2022-09-14T03:31:39.312Z,4.10
2022-09-14T03:34:05.835Z,4.13
2022-09-14T03:36:32.375Z,4.23
2022-09-14T03:38:59.616Z,4.60
2022-09-14T03:41:26.159Z,4.87
2022-09-14T03:43:52.754Z,4.07
2022-09-14T03:46:22.860Z,4.13
2022-09-14T03:48:49.482Z,4.27
2022-09-14T03:51:16.045Z,4.80
2022-09-14T03:53:43.275Z,4.60
2022-09-14T03:56:15.386Z,4.03
2022-09-14T03:58:42.460Z,4.60
2022-09-14T04:01:10.677Z,4.60
2022-09-14T04:03:37.531Z,4.30
2022-09-14T04:06:07.380Z,4.37
2022-09-14T04:08:34.670Z,4.60
2022-09-14T04:11:01.366Z,4.30
2022-09-14T04:13:27.914Z,4.63
2022-09-14T04:15:58.654Z,4.40
2022-09-14T04:18:25.592Z,4.20
2022-09-14T04:20:56.419Z,4.80
2022-09-14T04:23:23.039Z,4.90
2022-09-14T04:25:49.584Z,4.53
2022-09-14T04:28:20.621Z,4.50
2022-09-14T04:31:00.588Z,4.70
2022-09-14T04:33:30.063Z,4.70
2022-09-14T04:36:07.871Z,4.60
2022-09-14T04:38:35.174Z,4.50
2022-09-14T04:41:13.757Z,5.30
2022-09-14T04:43:40.402Z,4.67
2022-09-14T04:46:11.906Z,4.27
2022-09-14T04:48:38.476Z,5.63
2022-09-14T04:51:10.112Z,6.33
2022-09-14T04:53:37.420Z,4.63
2022-09-14T04:56:05.252Z,4.33
2022-09-14T04:58:32.755Z,5.07
2022-09-14T05:01:06.216Z,5.00
2022-09-14T05:03:32.700Z,5.10
2022-09-14T05:06:03.156Z,8.37
2022-09-14T05:08:29.680Z,8.80
2022-09-14T05:10:56.735Z,10.13
2022-09-14T05:13:23.575Z,8.70
2022-09-14T05:15:50.567Z,9.97
2022-09-14T05:18:18.242Z,8.37
2022-09-14T05:20:44.787Z,8.10
2022-09-14T05:23:11.580Z,7.37
2022-09-14T05:25:38.110Z,7.90
2022-09-14T05:28:04.619Z,8.67
2022-09-14T05:30:31.097Z,10.53
2022-09-14T05:32:58.225Z,7.70
2022-09-14T05:35:24.783Z,10.77
2022-09-14T05:37:51.327Z,9.37
2022-09-14T05:40:17.934Z,11.97
2022-09-14T05:42:44.476Z,9.47
2022-09-14T05:45:11.071Z,15.67
2022-09-14T05:47:39.309Z,14.23
2022-09-14T05:50:08.368Z,9.77
2022-09-14T05:52:34.884Z,7.97
2022-09-14T05:55:01.816Z,7.23
2022-09-14T05:57:28.316Z,9.93
2022-09-14T05:59:54.825Z,8.80
2022-09-14T06:02:21.377Z,8.00
2022-09-14T06:04:47.969Z,7.77
2022-09-14T06:07:18.843Z,7.07
2022-09-14T06:09:45.693Z,10.30
2022-09-14T06:12:14.505Z,8.07
2022-09-14T06:14:40.987Z,9.30
2022-09-14T06:17:07.502Z,11.93
2022-09-14T06:19:34.024Z,7.00
2022-09-14T06:22:00.735Z,8.30
2022-09-14T06:24:27.279Z,7.90
2022-09-14T06:26:53.815Z,8.27
2022-09-14T06:29:20.306Z,10.23
2022-09-14T06:31:46.841Z,7.60
2022-09-14T06:34:13.315Z,8.60
2022-09-14T06:36:39.824Z,15.10
2022-09-14T06:39:06.315Z,12.13
2022-09-14T06:41:34.335Z,7.93
2022-09-14T06:44:01.804Z,10.63
2022-09-14T06:46:32.639Z,12.77
2022-09-14T06:49:07.359Z,13.60
2022-09-14T06:51:35.672Z,7.83
2022-09-14T06:54:02.343Z,10.73
2022-09-14T06:56:30.880Z,11.17
2022-09-14T06:58:58.043Z,8.40
2022-09-14T07:01:25.960Z,10.00
2022-09-14T07:03:52.830Z,8.23
2022-09-14T07:06:21.085Z,12.87
2022-09-14T07:08:48.199Z,10.20
2022-09-14T07:11:15.643Z,7.87
2022-09-14T07:13:42.139Z,11.47
2022-09-14T07:16:08.920Z,11.10
2022-09-14T07:18:35.869Z,7.30
2022-09-14T07:21:05.737Z,7.37
2022-09-14T07:23:32.551Z,9.50
2022-09-14T07:26:05.460Z,10.07
2022-09-14T07:28:33.094Z,9.63
2022-09-14T07:31:00.158Z,8.40
2022-09-14T07:33:26.838Z,9.70
2022-09-14T07:35:53.491Z,8.33
2022-09-14T07:38:30.732Z,7.40
2022-09-14T07:41:07.064Z,6.67
2022-09-14T07:43:33.670Z,7.53
2022-09-14T07:46:04.401Z,10.90
2022-09-14T07:48:32.585Z,7.47
2022-09-14T07:51:03.337Z,9.27
2022-09-14T07:53:30.203Z,7.77
2022-09-14T07:56:00.816Z,7.33
2022-09-14T07:58:28.175Z,6.47
2022-09-14T08:01:08.552Z,8.07
2022-09-14T08:03:38.662Z,5.70
2022-09-14T08:06:10.820Z,8.03
2022-09-14T08:08:38.704Z,8.50
2022-09-14T08:11:11.744Z,6.47
2022-09-14T08:13:39.707Z,7.03
2022-09-14T08:16:06.487Z,6.27
2022-09-14T08:18:33.380Z,6.03
2022-09-14T08:21:07.899Z,7.20
2022-09-14T08:23:34.673Z,6.57
2022-09-14T08:26:17.637Z,6.67
2022-09-14T08:28:44.356Z,6.03
2022-09-14T08:31:21.357Z,9.90
2022-09-14T08:33:49.900Z,6.53
2022-09-14T08:36:19.760Z,6.10
2022-09-14T08:38:46.312Z,7.40
2022-09-14T08:41:51.253Z,7.23
2022-09-14T08:44:25.837Z,6.90
2022-09-14T08:47:12.167Z,6.57
2022-09-14T08:50:07.089Z,6.03
2022-09-14T08:52:43.267Z,6.47
2022-09-14T08:55:37.755Z,5.27
2022-09-14T08:58:10.326Z,6.70
2022-09-14T09:00:41.860Z,6.10
2022-09-14T09:03:17.419Z,5.97
2022-09-14T09:05:52.539Z,7.67
2022-09-14T09:08:39.446Z,6.43
2022-09-14T09:11:07.293Z,5.63
2022-09-14T09:13:35.753Z,5.03
2022-09-14T09:16:07.693Z,5.13
2022-09-14T09:18:43.850Z,5.97
2022-09-14T09:21:17.307Z,7.50
2022-09-14T09:23:44.025Z,6.47
2022-09-14T09:26:25.567Z,4.97
2022-09-14T09:28:53.528Z,5.53
2022-09-14T09:31:24.553Z,5.57
2022-09-14T09:33:51.217Z,5.23
2022-09-14T09:36:18.423Z,5.13
2022-09-14T09:38:44.944Z,5.87
2022-09-14T09:41:24.277Z,7.50
2022-09-14T09:44:09.356Z,4.83
2022-09-14T09:46:48.404Z,4.67
2022-09-14T09:49:40.032Z,5.97
2022-09-14T09:52:16.179Z,5.93
2022-09-14T09:54:44.113Z,5.70
2022-09-14T09:57:24.115Z,6.03
2022-09-14T09:59:50.635Z,8.50
2022-09-14T10:02:26.024Z,5.23
2022-09-14T10:04:58.636Z,5.50
2022-09-14T10:07:25.263Z,5.60
2022-09-14T10:10:12.006Z,5.53
2022-09-14T10:12:39.483Z,5.17
2022-09-14T10:15:21.230Z,5.03
2022-09-14T10:18:04.499Z,4.63
2022-09-14T10:20:31.052Z,5.20
2022-09-14T10:22:57.523Z,5.23
2022-09-14T10:25:25.726Z,4.40
2022-09-14T10:27:55.120Z,4.37
2022-09-14T10:30:22.263Z,5.90
2022-09-14T10:33:03.982Z,5.20
2022-09-14T10:35:56.267Z,4.77
2022-09-14T10:38:37.846Z,4.60
2022-09-14T10:41:08.471Z,5.63
2022-09-14T10:43:56.720Z,5.17
2022-09-14T10:46:29.657Z,9.63
2022-09-14T10:49:14.816Z,4.60
2022-09-14T10:51:47.071Z,4.47
2022-09-14T10:54:16.439Z,4.77
2022-09-14T10:56:56.042Z,4.57
2022-09-14T10:59:41.361Z,4.53
2022-09-14T11:02:20.085Z,3.63
2022-09-14T11:05:00.574Z,4.37
2022-09-14T11:07:51.349Z,5.30
2022-09-14T11:10:23.605Z,5.57
2022-09-14T11:13:05.265Z,6.30
2022-09-14T11:15:36.984Z,5.43
2022-09-14T11:18:31.905Z,5.00
2022-09-14T11:21:35.919Z,4.30
2022-09-14T11:24:10.908Z,4.33
2022-09-14T11:26:50.457Z,5.67
2022-09-14T11:29:32.120Z,5.17
2022-09-14T11:32:22.612Z,4.20
2022-09-14T11:34:57.790Z,4.27
2022-09-14T11:37:36.661Z,4.80
2022-09-14T11:40:16.784Z,4.37
2022-09-14T11:43:17.539Z,5.27
2022-09-14T11:45:48.209Z,8.17
2022-09-14T11:51:20.384Z,8.57
2022-09-14T11:53:47.248Z,7.77
2022-09-14T11:56:26.397Z,9.30
2022-09-14T11:58:58.312Z,13.60
2022-09-14T12:01:27.977Z,8.50
2022-09-14T12:04:04.330Z,11.80
2022-09-14T12:06:30.785Z,10.27
2022-09-14T12:09:25.054Z,12.17
2022-09-14T12:11:53.247Z,11.13
2022-09-14T12:14:31.980Z,9.90
2022-09-14T12:17:40.624Z,9.90
2022-09-14T12:20:32.067Z,10.67
2022-09-14T12:23:05.784Z,8.97
2022-09-14T12:25:32.323Z,13.23
2022-09-14T12:27:58.794Z,12.50
2022-09-14T12:30:39.945Z,10.73
2022-09-14T12:33:33.352Z,8.37
2022-09-14T12:36:03.666Z,12.40
2022-09-14T12:38:30.261Z,9.10
2022-09-14T12:40:57.041Z,10.80
2022-09-14T12:43:32.478Z,12.57
2022-09-14T12:46:21.750Z,11.03
2022-09-14T12:48:48.328Z,9.73
2022-09-14T12:51:32.822Z,10.03
2022-09-14T12:54:08.435Z,11.30
2022-09-14T12:56:43.924Z,9.23
2022-09-14T12:59:38.762Z,8.93
2022-09-14T13:02:43.309Z,11.73
2022-09-14T13:05:15.824Z,11.73
2022-09-14T13:07:42.406Z,9.27
2022-09-14T13:10:36.293Z,9.73
2022-09-14T13:13:05.717Z,7.80
2022-09-14T13:15:33.521Z,7.50
2022-09-14T13:18:12.480Z,12.20
2022-09-14T13:20:40.387Z,8.80
2022-09-14T13:23:36.991Z,9.23
2022-09-14T13:26:30.207Z,10.83
2022-09-14T13:28:57.903Z,10.97
2022-09-14T13:31:32.065Z,10.50
2022-09-14T13:33:58.660Z,9.30
2022-09-14T13:36:26.972Z,7.17
2022-09-14T13:38:53.883Z,9.47
2022-09-14T13:41:22.880Z,9.63
2022-09-14T13:43:52.348Z,7.50
2022-09-14T13:46:20.571Z,8.80
2022-09-14T13:48:47.368Z,8.43
2022-09-14T13:51:14.092Z,9.23
2022-09-14T13:53:51.193Z,9.23
2022-09-14T13:56:20.708Z,10.33
2022-09-14T13:58:48.659Z,9.53
2022-09-14T14:01:24.339Z,9.57
2022-09-14T14:03:50.973Z,7.70
2022-09-14T14:06:30.544Z,6.40
2022-09-14T14:09:10.717Z,6.47
2022-09-14T14:11:45.435Z,6.60
2022-09-14T14:14:19.540Z,7.30
2022-09-14T14:17:23.516Z,7.43
2022-09-14T14:19:52.512Z,7.60
2022-09-14T14:22:19.725Z,7.77
2022-09-14T14:25:12.262Z,7.37
2022-09-14T14:27:43.128Z,6.43
2022-09-14T14:30:13.828Z,7.13
2022-09-14T14:32:40.308Z,7.63
2022-09-14T14:35:17.568Z,7.03
2022-09-14T14:37:44.193Z,6.57
2022-09-14T14:40:13.792Z,5.57
2022-09-14T14:42:40.367Z,6.70
2022-09-14T14:45:07.499Z,5.83
2022-09-14T14:47:34.004Z,6.23
2022-09-14T14:50:01.136Z,7.33
2022-09-14T14:52:27.676Z,6.23
2022-09-14T14:54:54.180Z,5.20
2022-09-14T14:57:20.696Z,7.57
2022-09-14T14:59:47.182Z,7.53
2022-09-14T15:02:13.684Z,5.77
2022-09-14T15:04:40.160Z,6.13
2022-09-14T15:07:06.826Z,6.47
2022-09-14T15:09:33.323Z,6.30
2022-09-14T15:11:59.799Z,6.10
2022-09-14T15:14:27.614Z,5.80
2022-09-14T15:16:57.929Z,6.53
2022-09-14T15:19:24.692Z,9.00
2022-09-14T15:21:51.202Z,7.03
2022-09-14T15:24:17.704Z,10.10
2022-09-14T15:26:44.175Z,8.70
2022-09-14T15:29:13.249Z,8.13
2022-09-14T15:31:42.784Z,7.77
2022-09-14T15:34:09.334Z,11.03
2022-09-14T15:36:40.190Z,9.13
2022-09-14T15:39:07.104Z,7.40
2022-09-14T15:41:33.647Z,9.03
2022-09-14T15:44:00.522Z,7.40
2022-09-14T15:46:27.040Z,7.40
2022-09-14T15:48:53.506Z,6.20
2022-09-14T15:51:20.013Z,11.47
2022-09-14T15:53:47.697Z,14.67
2022-09-14T15:56:15.952Z,10.00
2022-09-14T15:58:47.789Z,10.03
2022-09-14T16:01:15.708Z,7.13
2022-09-14T16:03:42.768Z,7.37
2022-09-14T16:06:13.172Z,12.93
2022-09-14T16:08:39.982Z,7.47
2022-09-14T16:11:07.276Z,11.23
2022-09-14T16:13:34.428Z,13.37
2022-09-14T16:16:12.744Z,11.47
2022-09-14T16:18:39.356Z,12.30
2022-09-14T16:21:08.560Z,18.93
2022-09-14T16:23:36.759Z,11.07
2022-09-14T16:26:11.124Z,11.70
2022-09-14T16:28:41.661Z,8.63
2022-09-14T16:31:11.275Z,13.90
2022-09-14T16:33:42.064Z,9.17
2022-09-14T16:36:13.568Z,12.37
2022-09-14T16:38:40.170Z,11.27
2022-09-14T16:41:06.846Z,13.93
2022-09-14T16:43:33.690Z,15.73
2022-09-14T16:46:13.807Z,13.93
2022-09-14T16:48:44.757Z,11.93
2022-09-14T16:51:11.794Z,10.87
2022-09-14T16:53:39.065Z,11.87
2022-09-14T16:56:15.259Z,15.40
2022-09-14T16:58:42.219Z,10.53
2022-09-14T17:01:18.196Z,13.20
2022-09-14T17:03:45.703Z,11.67
2022-09-14T17:06:14.414Z,10.00
2022-09-14T17:08:43.807Z,9.83
2022-09-14T17:11:11.012Z,9.03
2022-09-14T17:13:37.588Z,12.30
2022-09-14T17:16:09.143Z,11.17
2022-09-14T17:18:36.998Z,10.13
2022-09-14T17:21:08.897Z,8.60
2022-09-14T17:23:35.451Z,10.07
2022-09-14T17:26:03.894Z,10.43
2022-09-14T17:28:30.415Z,11.50
2022-09-14T17:30:58.107Z,11.27
2022-09-14T17:33:24.807Z,10.53
2022-09-14T17:35:54.434Z,8.70
2022-09-14T17:38:22.191Z,7.00
2022-09-14T17:40:48.691Z,9.07
2022-09-14T17:43:15.586Z,9.80
2022-09-14T17:45:51.744Z,11.93
2022-09-14T17:48:18.258Z,8.73
2022-09-14T17:50:44.758Z,7.47
2022-09-14T17:53:11.516Z,8.53
2022-09-14T17:55:38.033Z,7.80
2022-09-14T17:58:04.528Z,10.20
2022-09-14T18:00:31.039Z,8.00
2022-09-14T18:02:57.516Z,13.27
2022-09-14T18:05:24.060Z,6.33
2022-09-14T18:07:51.386Z,6.93
2022-09-14T18:10:18.641Z,9.10
2022-09-14T18:12:45.215Z,10.30
2022-09-14T18:15:15.250Z,6.27
2022-09-14T18:17:42.779Z,8.47
2022-09-14T18:20:09.923Z,7.43
2022-09-14T18:22:37.095Z,6.63
2022-09-14T18:25:05.119Z,6.80
2022-09-14T18:27:31.935Z,5.87
2022-09-14T18:29:58.813Z,10.73
2022-09-14T18:32:25.316Z,7.17
2022-09-14T18:34:51.787Z,7.63
2022-09-14T18:37:18.335Z,5.87
2022-09-14T18:39:44.894Z,8.33
2022-09-14T18:42:11.474Z,10.57
2022-09-14T18:44:37.943Z,8.17
2022-09-14T18:47:04.676Z,5.80
2022-09-14T18:49:31.183Z,5.27
2022-09-14T18:51:57.686Z,6.77
2022-09-14T18:54:27.617Z,5.33
2022-09-14T18:56:54.455Z,7.10
2022-09-14T18:59:20.939Z,6.27
2022-09-14T19:01:47.481Z,7.93
2022-09-14T19:04:15.900Z,4.83
2022-09-14T19:06:44.377Z,5.50
2022-09-14T19:09:11.184Z,5.13
2022-09-14T19:11:37.713Z,4.40
2022-09-14T19:14:10.046Z,7.23
2022-09-14T19:16:37.777Z,5.27
2022-09-14T19:19:04.687Z,6.20
2022-09-14T19:21:31.356Z,7.93
2022-09-14T19:24:06.878Z,6.87
2022-09-14T19:26:35.887Z,5.63
2022-09-14T19:29:03.462Z,4.60
2022-09-14T19:31:33.625Z,4.37
2022-09-14T19:34:01.039Z,4.53
2022-09-14T19:36:27.883Z,4.83
2022-09-14T19:38:55.102Z,4.40
2022-09-14T19:41:21.943Z,6.10
2022-09-14T19:43:48.420Z,6.17
2022-09-14T19:46:19.032Z,5.77
2022-09-14T19:48:45.865Z,3.77
2022-09-14T19:51:29.065Z,4.73
2022-09-14T19:53:56.413Z,5.43
2022-09-14T19:56:27.711Z,3.90
2022-09-14T19:58:56.051Z,5.20
2022-09-14T20:01:23.212Z,6.17
2022-09-14T20:03:49.932Z,5.17
2022-09-14T20:06:31.775Z,4.67
2022-09-14T20:09:02.296Z,5.43
2022-09-14T20:11:30.234Z,4.67
2022-09-14T20:13:57.532Z,4.00
2022-09-14T20:16:28.617Z,5.50
2022-09-14T20:18:56.506Z,4.77
2022-09-14T20:21:24.420Z,3.83
2022-09-14T20:24:14.578Z,4.53
2022-09-14T20:26:42.028Z,4.50
2022-09-14T20:29:08.573Z,4.00
2022-09-14T20:31:35.173Z,4.30
2022-09-14T20:34:02.010Z,4.77
2022-09-14T20:36:28.766Z,3.63
2022-09-14T20:38:56.612Z,4.30
2022-09-14T20:41:29.688Z,5.57
2022-09-14T20:43:56.302Z,4.80
2022-09-14T20:46:24.507Z,4.67
2022-09-14T20:48:51.294Z,5.27
2022-09-14T20:51:20.503Z,3.40
2022-09-14T20:53:47.460Z,3.40
2022-09-14T20:56:19.008Z,3.03
2022-09-14T20:58:45.701Z,4.20
2022-09-14T21:01:13.919Z,3.50
2022-09-14T21:03:42.275Z,3.83
2022-09-14T21:06:14.648Z,3.97
2022-09-14T21:08:41.290Z,5.10
2022-09-14T21:11:13.045Z,3.70
2022-09-14T21:13:39.552Z,3.80
2022-09-14T21:16:13.347Z,5.63
2022-09-14T21:18:40.228Z,3.67
2022-09-14T21:21:08.154Z,3.33
2022-09-14T21:23:34.662Z,3.67
2022-09-14T21:26:01.159Z,4.60
2022-09-14T21:28:27.696Z,4.43
2022-09-14T21:31:12.658Z,3.60
2022-09-14T21:33:42.907Z,3.73
2022-09-14T21:36:14.530Z,3.47
2022-09-14T21:38:41.251Z,3.37
2022-09-14T21:41:08.901Z,4.87
2022-09-14T21:43:39.119Z,3.33
2022-09-14T21:46:05.977Z,4.67
2022-09-14T21:48:32.556Z,3.33
2022-09-14T21:51:19.364Z,3.87
2022-09-14T21:53:56.872Z,3.03
2022-09-14T21:56:24.883Z,4.37
2022-09-14T21:58:56.364Z,2.80
2022-09-14T22:01:23.819Z,3.70
2022-09-14T22:03:51.537Z,3.20
2022-09-14T22:06:19.208Z,3.50
2022-09-14T22:08:46.250Z,3.50
2022-09-14T22:11:19.093Z,3.00
2022-09-14T22:13:55.724Z,3.00
2022-09-14T22:16:23.007Z,3.97
2022-09-14T22:18:59.827Z,3.23
2022-09-14T22:21:27.484Z,3.30
2022-09-14T22:23:55.969Z,3.60
2022-09-14T22:26:22.592Z,4.83
2022-09-14T22:28:50.144Z,3.27
2022-09-14T22:31:17.660Z,3.07
2022-09-14T22:33:44.276Z,4.00
2022-09-14T22:36:10.993Z,3.90
2022-09-14T22:38:37.551Z,3.00
2022-09-14T22:41:06.075Z,3.10
2022-09-14T22:43:33.860Z,3.60
2022-09-14T22:46:00.490Z,2.70
2022-09-14T22:48:27.071Z,3.43
2022-09-14T22:50:55.572Z,3.33
2022-09-14T22:53:22.821Z,3.37
2022-09-14T22:55:49.507Z,2.87
2022-09-14T22:58:18.987Z,3.20
2022-09-14T23:00:46.382Z,3.00
2022-09-14T23:03:13.435Z,3.97
2022-09-14T23:05:40.262Z,3.73
2022-09-14T23:08:07.798Z,3.03
2022-09-14T23:10:37.594Z,2.93
2022-09-14T23:13:04.108Z,3.00
2022-09-14T23:15:30.907Z,3.07
2022-09-14T23:17:57.412Z,3.03
2022-09-14T23:20:23.967Z,2.60
2022-09-14T23:22:50.455Z,2.53
2022-09-14T23:25:17.002Z,4.80
2022-09-14T23:27:43.498Z,3.13
2022-09-14T23:30:10.404Z,2.80
2022-09-14T23:32:36.955Z,3.03
2022-09-14T23:35:03.635Z,2.63
2022-09-14T23:37:30.128Z,2.70
2022-09-14T23:39:56.921Z,3.07
2022-09-14T23:42:23.459Z,3.77
2022-09-14T23:44:49.958Z,2.43
2022-09-14T23:47:17.494Z,3.47
2022-09-14T23:49:44.042Z,5.03
2022-09-14T23:52:10.538Z,3.13
2022-09-14T23:54:37.057Z,3.63
2022-09-14T23:57:03.611Z,3.17
2022-09-14T23:59:30.111Z,2.73
